Sterboholy, Czech Republic

2:59 AM CEST on April 27, 2017 (GMT +0200)
Prague Sterboholy | | Change Station

Elev 781 ft 50.08 °N, 14.55 °E | Updated 21 days ago

Overcast
Overcast
56.1 °F
Feels Like 56.1 °F
N
3.0
Wind Variable Wind from West
Gusts 7.0 mph

Today
High -- | Low -- °F
--% Chance of Precip.
Yesterday
High -- | Low -- °F
Precip. -- in
Pressure 29.89 in
Visibility 6.2 miles
Clouds Few 800 ft
Scattered Clouds 1000 ft
Dew Point 45 °F
Humidity 67%
Rainfall 0.58 in
Snow Depth Not available.
5:45 AM 8:14 PM
New Moon, 0% visible
METAR LKPR 270030Z 35003KT 310V010 9999 FEW008 SCT010 04/02 Q1012 NOSIG
Pressure 29.89 in
Visibility 6.2 miles
Clouds Few 800 ft
Scattered Clouds 1000 ft
Dew Point 45 °F
Humidity 67%
Rainfall 0.58 in
Snow Depth Not available.
5:45 AM 8:14 PM
New Moon, 0% visible
METAR LKPR 270030Z 35003KT 310V010 9999 FEW008 SCT010 04/02 Q1012 NOSIG

Get Severe Weather Alerts

Thanks for signing up!

Be on the lookout for a verification email in your inbox.

You'll start receiving the daily forecast at 8 AM.

×

10-Day Weather Forecast

×

Almanac

Astronomy

Apr. 27, 2017 Rise Set
Actual Time
Civil Twilight
Nautical Twilight
Astronomical Twilight
Moon
Length of Visible Light
Length of Day
Tomorrow will be .
, % of the Moon is Illuminated

Today's Extremes

Country Highs Country Lows

Community

WunderPhotos

WunderBlog® & News

Nearby

Air Quality

  Air Quality AQ Index Pollutant
Not available.

Snow Depth

Station Depth Elevation

Earthquake Activity

City Distance Mag. Time & Date
Minimum magnitude displayed is 2.5.

Coastal Water Temperatures

Place Temperature

Stations

Nearby Weather Stations

Station Location Temp. Windchill Dew Point Humidity Wind Precip. Elev Updated Type